Depesze METAR lotnisk w Polsce

METAR – format kodowanego raportu o pogodzie używany w meteorologii lotniczej i prognozie pogody. METAR jest akronimem od ang. Meteorological Aerodrome Report. Typowy METAR zawiera informację o temperaturze, ciśnieniu, temperaturze punktu rosy, sile i kierunku wiatru, opadzie, pokrywie chmur, wysokości podstawy chmur, widzialności, lecz może zawierać też inne informacje (np. stan dróg startowych).

Warszawa-Okęcie (EPWA)

METAR = EPWA 241300Z 17009KT CAVOK 09/06 Q1013 NOSIG

STACJA......... EPWA - Warszawa-Okęcie (WAW)
POMIAR......... Fri Nov 24, 14:00 CET
WIATR.......... południowy (S) z prędkością 17 km/h
WIDZIALNOŚĆ.... powyżej 10 kilometrów
CHMURY......... bezchmurne niebo
TEMPERATURA.... 9°C
T.PUNKTU ROSY.. 6°C
WILGOTNOŚĆ..... 82%
T.ODCZUWALNA... 6°C
CIŚNIENIE...... 1013 hPa
CIŚN.BEZWZGL... 1000 hPa
PROGNOZA....... bez nagłych zmian w ciągu 2h

Sprawdź też: Prognoza pogody Warszawa

Warszawa-Modlin (EPMO)

METAR = EPMO 241230Z 14006KT CAVOK 10/07 Q1012 =

STACJA......... EPMO - Warszawa-Modlin (WMI)
POMIAR......... Fri Nov 24, 13:30 CET
WIATR.......... południowo wschodni (SE) z prędkością 11 km/h
WIDZIALNOŚĆ.... powyżej 10 kilometrów
CHMURY......... bezchmurne niebo
TEMPERATURA.... 10°C
T.PUNKTU ROSY.. 7°C
WILGOTNOŚĆ..... 82%
T.ODCZUWALNA... 8°C
CIŚNIENIE...... 1012 hPa
CIŚN.BEZWZGL... 999 hPa

Sprawdź też: Prognoza pogody Nowy Dwór Mazowiecki

Kraków-Balice (EPKK)

METAR = EPKK 241300Z 22002KT CAVOK 11/05 Q1015

STACJA......... EPKK - Kraków-Balice (KRK)
POMIAR......... Fri Nov 24, 14:00 CET
WIATR.......... południowo-zachodni (SW) z prędkością 4 km/h
WIDZIALNOŚĆ.... powyżej 10 kilometrów
CHMURY......... bezchmurne niebo
TEMPERATURA.... 11°C
T.PUNKTU ROSY.. 5°C
WILGOTNOŚĆ..... 67%
CIŚNIENIE...... 1015 hPa
CIŚN.BEZWZGL... 986 hPa

Sprawdź też: Prognoza pogody Kraków

Łódź-Lublinek (EPLL)

METAR = EPLL 241300Z 18004KT 130V220 CAVOK 11/06 Q1013

STACJA......... EPLL - Łódź-Lublinek (LCJ)
POMIAR......... Fri Nov 24, 14:00 CET
WIATR.......... południowy (S) z prędkością 7 km/h
WIDZIALNOŚĆ.... powyżej 10 kilometrów
CHMURY......... bezchmurne niebo
TEMPERATURA.... 11°C
T.PUNKTU ROSY.. 6°C
WILGOTNOŚĆ..... 72%
CIŚNIENIE...... 1013 hPa
CIŚN.BEZWZGL... 991 hPa

Sprawdź też: Prognoza pogody Łódź

Wrocław-Strachowice (EPWR)

METAR = EPWR 241300Z 17004KT 150V210 CAVOK 13/07 Q1012

STACJA......... EPWR - Wrocław-Strachowice (WRO)
POMIAR......... Fri Nov 24, 14:00 CET
WIATR.......... południowy (S) z prędkością 7 km/h
WIDZIALNOŚĆ.... powyżej 10 kilometrów
CHMURY......... bezchmurne niebo
TEMPERATURA.... 13°C
T.PUNKTU ROSY.. 7°C
WILGOTNOŚĆ..... 67%
CIŚNIENIE...... 1012 hPa
CIŚN.BEZWZGL... 997 hPa

Sprawdź też: Prognoza pogody Wrocław

Katowice-Pyrzowice (EPKT)

METAR = EPKT 241300Z 19010KT CAVOK 10/05 Q1015

STACJA......... EPKT - Katowice-Pyrzowice (KTW)
POMIAR......... Fri Nov 24, 14:00 CET
WIATR.......... południowy (S) z prędkością 19 km/h
WIDZIALNOŚĆ.... powyżej 10 kilometrów
CHMURY......... bezchmurne niebo
TEMPERATURA.... 10°C
T.PUNKTU ROSY.. 5°C
WILGOTNOŚĆ..... 71%
T.ODCZUWALNA... 8°C
CIŚNIENIE...... 1015 hPa
CIŚN.BEZWZGL... 979 hPa

Sprawdź też: Prognoza pogody Katowice

Gdańsk (EPGD)

METAR = EPGD 241300Z 17011KT 9999 FEW049 09/06 Q1007

STACJA......... EPGD - Gdańsk im. Lecha Wałęsy (GDN)
POMIAR......... Fri Nov 24, 14:00 CET
WIATR.......... południowy (S) z prędkością 20 km/h
WIDZIALNOŚĆ.... powyżej 10 kilometrów
CHMURY......... zachmurzenie niewielkie (1/8-2/8)
TEMPERATURA.... 9°C
T.PUNKTU ROSY.. 6°C
WILGOTNOŚĆ..... 82%
T.ODCZUWALNA... 6°C
CIŚNIENIE...... 1007 hPa
CIŚN.BEZWZGL... 989 hPa

Sprawdź też: Prognoza pogody Gdańsk

Poznań-Ławica (EPPO)

METAR = EPPO 241300Z 19011KT CAVOK 12/07 Q1009

STACJA......... EPPO - Poznań-Ławica (POZ)
POMIAR......... Fri Nov 24, 14:00 CET
WIATR.......... południowy (S) z prędkością 20 km/h
WIDZIALNOŚĆ.... powyżej 10 kilometrów
CHMURY......... bezchmurne niebo
TEMPERATURA.... 12°C
T.PUNKTU ROSY.. 7°C
WILGOTNOŚĆ..... 72%
CIŚNIENIE...... 1009 hPa
CIŚN.BEZWZGL... 998 hPa

Sprawdź też: Prognoza pogody Poznań

Rzeszów-Jasionka (EPRZ)

METAR = EPRZ 241300Z 20010KT CAVOK 11/06 Q1016

STACJA......... EPRZ - Rzeszów-Jasionka (RZE)
POMIAR......... Fri Nov 24, 14:00 CET
WIATR.......... południowo południowo-zachodni  (SSW) z prędkością 19 km/h
WIDZIALNOŚĆ.... powyżej 10 kilometrów
CHMURY......... bezchmurne niebo
TEMPERATURA.... 11°C
T.PUNKTU ROSY.. 6°C
WILGOTNOŚĆ..... 72%
CIŚNIENIE...... 1016 hPa
CIŚN.BEZWZGL... 991 hPa

Sprawdź też: Prognoza pogody Rzeszów

Szczecin-Goleniów (EPSC)

METAR = EPSC 241300Z 28011KT 250V310 9999 FEW008 BKN026 OVC030 11/08 Q1005

STACJA......... EPSC - Szczecin-Goleniów (SZZ)
POMIAR......... Fri Nov 24, 14:00 CET
WIATR.......... zachodni (W) z prędkością 20 km/h
WIDZIALNOŚĆ.... powyżej 10 kilometrów
CHMURY......... zachmurzenie całkowite (8/8)
TEMPERATURA.... 11°C
T.PUNKTU ROSY.. 8°C
WILGOTNOŚĆ..... 82%
CIŚNIENIE...... 1005 hPa
CIŚN.BEZWZGL... 999 hPa

Sprawdź też: Prognoza pogody Szczecin

Lublin-Świdnik (EPLB)

METAR = EPLB 241230Z 20006KT CAVOK 10/06 Q1016 =

STACJA......... EPLB - Lublin-Świdnik (LUZ)
POMIAR......... Fri Nov 24, 13:30 CET
WIATR.......... południowo południowo-zachodni  (SSW) z prędkością 11 km/h
WIDZIALNOŚĆ.... powyżej 10 kilometrów
CHMURY......... bezchmurne niebo
TEMPERATURA.... 10°C
T.PUNKTU ROSY.. 6°C
WILGOTNOŚĆ..... 76%
T.ODCZUWALNA... 8°C
CIŚNIENIE...... 1016 hPa
CIŚN.BEZWZGL... 991 hPa

Sprawdź też: Prognoza pogody Lublin

Bydgoszcz-Szwederowo (EPBY)

METAR = EPBY 241230Z 18010KT CAVOK 11/07 Q1009 =

STACJA......... EPBY - Bydgoszcz-Szwederowo (BZG)
POMIAR......... Fri Nov 24, 13:30 CET
WIATR.......... południowy (S) z prędkością 19 km/h
WIDZIALNOŚĆ.... powyżej 10 kilometrów
CHMURY......... bezchmurne niebo
TEMPERATURA.... 11°C
T.PUNKTU ROSY.. 7°C
WILGOTNOŚĆ..... 77%
CIŚNIENIE...... 1009 hPa
CIŚN.BEZWZGL... 1000 hPa

Sprawdź też: Prognoza pogody Bydgoszcz

Zielona Góra-Babimost (EPZG)

METAR = EPZG 241230Z 18011KT CAVOK 14/06 Q1009 =

STACJA......... EPZG - Zielona Góra-Babimost (IEG)
POMIAR......... Fri Nov 24, 13:30 CET
WIATR.......... południowy (S) z prędkością 20 km/h
WIDZIALNOŚĆ.... powyżej 10 kilometrów
CHMURY......... bezchmurne niebo
TEMPERATURA.... 14°C
T.PUNKTU ROSY.. 6°C
WILGOTNOŚĆ..... 59%
CIŚNIENIE...... 1009 hPa
CIŚN.BEZWZGL... 1002 hPa

Sprawdź też: Prognoza pogody Zielona Góra

Szymany Olsztyn-Mazury (EPSY)

METAR = EPSY 241230Z 16006KT 130V200 9000 NSC 09/06 Q1012 R01/290095=

STACJA......... EPSY - Olsztyn-Mazury (SZY)
POMIAR......... Fri Nov 24, 13:30 CET
WIATR.......... południowo południowo-wschodni (SSE) z prędkością 11 km/h
WIDZIALNOŚĆ.... 9000 metrów
CHMURY......... brak istotnych chmur
TEMPERATURA.... 9°C
T.PUNKTU ROSY.. 6°C
WILGOTNOŚĆ..... 82%
T.ODCZUWALNA... 7°C
CIŚNIENIE...... 1012 hPa
CIŚN.BEZWZGL... 995 hPa
PAS STARTOWY... pas nr 01: woda na pasie na 51-100% pasa, mniej niż 1mm, dobra przyczepność hamowania

Sprawdź też: Prognoza pogody Olsztyn